Quick Links (Output Below):   Max & Min Temps   /   Climate Reports   /   Zone Forecasts
River Forecasts   /   Forestry Forecasts   /   Aviation Forecasts   /   Radars   /   Features

Terminal Aerodrome Forecast (Pine Bluff)

Pick a Site:
Arkadelphia | El Dorado | Fayetteville | Fort Smith | Harrison | Highfill | Hot Springs | Jonesboro
Little Rock | Monticello | Mountain Home | Pine Bluff | Texarkana
 Forecast 

KPBF 300529Z 3006/0106 12006KT P6SM -RA SCT008 OVC040
      TEMPO 3006/3009 3SM TSRA BR SCT008 OVC025CB
     FM300900 12008KT 4SM -TSRA BR BKN006 OVC025CB
     FM301100 15005KT 2SM -TSRA BR BKN005 OVC020CB
     FM301500 18010KT 6SM -RA BR BKN008 OVC015=


 Latest METARs (Observations) 
How to Decode METARs
09Z KPBF 300853Z AUTO 24011G21KT 7SM +RA FEW016 SCT046 OVC095 20/18
         A2981 RMK AO2 PK WND 24027/0836 LTG DSNT ALQDS TSB0755E10
         SLP092 P0052 60129 T02000183 53011
         
08Z KPBF 300753Z AUTO 20016G25KT 1 3/4SM VCTS +RA BR FEW009 SCT017
         OVC026 21/19 A2979 RMK AO2 LTG DSNT ALQDS TSB07E34 SLP085
         P0063 T02110189
         
07Z KPBF 300653Z AUTO 13005KT 6SM VCTS RA BR FEW008 SCT027 OVC095
         20/19 A2978 RMK AO2 LTG DSNT ALQDS TSE01B21E36 SLP081 P0014
         T02000194
         
06Z KPBF 300553Z AUTO 12006KT 6SM +TSRA BR FEW009 BKN040 OVC100 19/19
         A2978 RMK AO2 LTG DSNT ALQDS TSB47 SLP081 P0013 60029
         T01940189 10200 20189 402060167 58012
         
05Z KPBF 300453Z AUTO 10008KT 10SM -RA FEW012 SCT070 OVC100 19/18
         A2979 RMK AO2 LTG DSNT ALQDS RAB0354 TSB0357E18 SLP084 P0008
         T01940183
         
04Z KPBF 300353Z AUTO 00000KT 10SM FEW008 BKN044 BKN060 19/19 A2981
         RMK AO2 LTG DSNT ALQDS RAE50 TSB27E42 SLP091 P0007
         T01940189
         
03Z KPBF 300253Z AUTO 10007KT 10SM -RA SCT065 SCT080 BKN090 19/18
         A2979 RMK AO2 LTG DSNT ALQDS RAE0159B37 SLP084 P0000 60001
         T01940183 58008
         
02Z KPBF 300153Z AUTO 00000KT 10SM -RA BKN055 BKN080 BKN110 19/18
         A2980 RMK AO2 RAE07B45 SLP087 P0000 T01940183
         
01Z KPBF 300053Z AUTO 19003KT 10SM -RA FEW055 SCT070 BKN120 19/18
         A2981 RMK AO2 LTG DSNT W-NE RAB04 SLP092 P0001 T01940183
         
00Z KPBF 292353Z AUTO 18005KT 10SM FEW090 SCT110 19/19 A2981 RMK AO2
         RAE53 SLP092 P0006 60014 T01940189 10206 20178 56015
         
***** Today's Observations (Above) *****


Back to Main Page
http://www.srh.noaa.gov/lzk/qfcst.php

USA.gov is the U.S. government's official web portal to all federal, state and local government web resources and services.